PWSweather.com
Personal Weather Stations
Station Observations
WD4JKH
Forsyth, GA 31029

Forsyth, GA 31029

Lat: 33.033225, Lon: -83.927995

Elevation: 709

Station Type: Davis Vantage VUE

High Low Average
Temperature 67.1°F19.5°C 53.7°F12.1°C 59.7°F15.4°C
Dew Point 59.3°F15.2°C 50.4°F10.2°C 55.9°F13.3°C
Winds 3.7 mph 6.0 kmh Calm Calm 1.0 mph WSW1.6 kmh WSW
Wind Gusts 8.0 mph12.9 kmh -- 3.0 mph4.8 kmh
Humidity 99% 57% 88%
Pressure 30.27 in1025.1 mb 30.11 in1019.6 mb -
Precipitation 1.30 in33.0 mm - -
Hour Temp Dew Point Humidity Winds Wind Gusts Pressure Precip Precip Rate Daily Precip Total
12:00 AM 59.2°F15.1°C 58.6°F14.8°C 98% 1.0 mph SW1.6 kmh SW 2.0 mph3.2 kmh 30.12 in1020.0 mb 0.00 in0.0 mm 0.00 in0.0 mm 1.30 in33.0 mm
12:05 AM 59.1°F15.1°C 58.5°F14.7°C 98% 1.2 mph SW1.9 kmh SW 2.0 mph3.2 kmh 30.12 in1020.0 mb 0.00 in0.0 mm 0.00 in0.0 mm 0.00 in0.0 mm
12:10 AM 59.2°F15.1°C 58.6°F14.8°C 98% 1.3 mph WSW2.1 kmh WSW 2.0 mph3.2 kmh 30.12 in1020.0 mb 0.00 in0.0 mm 0.00 in0.0 mm 0.00 in0.0 mm
12:15 AM 59.2°F15.1°C 58.6°F14.8°C 98% 1.0 mph WSW1.6 kmh WSW 2.0 mph3.2 kmh 30.12 in1020.0 mb 0.00 in0.0 mm 0.00 in0.0 mm 0.00 in0.0 mm
12:20 AM 59.1°F15.1°C 58.5°F14.7°C 98% Calm Calm 2.0 mph3.2 kmh 30.12 in1020.0 mb 0.00 in0.0 mm 0.00 in0.0 mm 0.00 in0.0 mm
12:25 AM 59.1°F15.1°C 58.5°F14.7°C 98% 1.0 mph SW1.6 kmh SW 2.0 mph3.2 kmh 30.12 in1020.0 mb 0.00 in0.0 mm 0.00 in0.0 mm 0.00 in0.0 mm
12:30 AM 59.0°F15.0°C 58.4°F14.7°C 98% 1.0 mph W1.6 kmh W 2.0 mph3.2 kmh 30.12 in1020.0 mb 0.00 in0.0 mm 0.00 in0.0 mm 0.00 in0.0 mm
12:35 AM 59.0°F15.0°C 58.4°F14.7°C 98% 1.0 mph WSW1.6 kmh WSW 2.0 mph3.2 kmh 30.12 in1020.0 mb 0.00 in0.0 mm 0.00 in0.0 mm 0.00 in0.0 mm
12:40 AM 59.0°F15.0°C 58.4°F14.7°C 98% 1.2 mph SW1.9 kmh SW 2.0 mph3.2 kmh 30.12 in1020.0 mb 0.00 in0.0 mm 0.00 in0.0 mm 0.00 in0.0 mm
12:45 AM 59.1°F15.1°C 58.5°F14.7°C 98% 1.4 mph W2.3 kmh W 2.0 mph3.2 kmh 30.12 in1020.0 mb 0.00 in0.0 mm 0.00 in0.0 mm 0.00 in0.0 mm
12:50 AM 59.1°F15.1°C 58.5°F14.7°C 98% 1.0 mph WSW1.6 kmh WSW 2.0 mph3.2 kmh 30.11 in1019.6 mb 0.00 in0.0 mm 0.00 in0.0 mm 0.00 in0.0 mm
12:55 AM 59.1°F15.1°C 58.5°F14.7°C 98% 1.0 mph WSW1.6 kmh WSW 2.0 mph3.2 kmh 30.12 in1020.0 mb 0.00 in0.0 mm 0.00 in0.0 mm 0.00 in0.0 mm
01:00 AM 59.0°F15.0°C 58.4°F14.7°C 98% 1.0 mph WSW1.6 kmh WSW 2.0 mph3.2 kmh 30.11 in1019.6 mb 0.00 in0.0 mm 0.00 in0.0 mm 0.00 in0.0 mm
01:05 AM 59.0°F15.0°C 58.4°F14.7°C 98% 1.0 mph WSW1.6 kmh WSW 2.0 mph3.2 kmh 30.11 in1019.6 mb 0.00 in0.0 mm 0.00 in0.0 mm 0.00 in0.0 mm
01:10 AM 59.1°F15.1°C 58.5°F14.7°C 98% 1.3 mph SW2.1 kmh SW 2.0 mph3.2 kmh 30.12 in1020.0 mb 0.00 in0.0 mm 0.00 in0.0 mm 0.00 in0.0 mm
01:15 AM 59.1°F15.1°C 58.5°F14.7°C 98% 1.3 mph SW2.1 kmh SW 2.0 mph3.2 kmh 30.12 in1020.0 mb 0.00 in0.0 mm 0.00 in0.0 mm 0.00 in0.0 mm
01:20 AM 59.2°F15.1°C 58.9°F14.9°C 99% 1.7 mph WSW2.7 kmh WSW 4.0 mph6.4 kmh 30.13 in1020.3 mb 0.00 in0.0 mm 0.00 in0.0 mm 0.00 in0.0 mm
01:25 AM 59.2°F15.1°C 58.9°F14.9°C 99% 1.4 mph WSW2.3 kmh WSW 4.0 mph6.4 kmh 30.13 in1020.3 mb 0.00 in0.0 mm 0.00 in0.0 mm 0.00 in0.0 mm
01:30 AM 59.1°F15.1°C 58.5°F14.7°C 98% 1.6 mph SW2.6 kmh SW 4.0 mph6.4 kmh 30.13 in1020.3 mb 0.00 in0.0 mm 0.00 in0.0 mm 0.00 in0.0 mm
01:35 AM 59.0°F15.0°C 58.4°F14.7°C 98% 1.6 mph SW2.6 kmh SW 4.0 mph6.4 kmh 30.13 in1020.3 mb 0.00 in0.0 mm 0.00 in0.0 mm 0.00 in0.0 mm
01:40 AM 58.9°F14.9°C 58.3°F14.6°C 98% 1.0 mph WSW1.6 kmh WSW 4.0 mph6.4 kmh 30.13 in1020.3 mb 0.00 in0.0 mm 0.00 in0.0 mm 0.00 in0.0 mm
01:45 AM 59.0°F15.0°C 58.4°F14.7°C 98% 1.2 mph WSW1.9 kmh WSW 4.0 mph6.4 kmh 30.13 in1020.3 mb 0.00 in0.0 mm 0.00 in0.0 mm 0.00 in0.0 mm
01:50 AM 59.1°F15.1°C 58.5°F14.7°C 98% 1.5 mph SW2.4 kmh SW 3.0 mph4.8 kmh 30.13 in1020.3 mb 0.00 in0.0 mm 0.00 in0.0 mm 0.00 in0.0 mm
01:55 AM 59.2°F15.1°C 58.9°F14.9°C 99% 2.4 mph WSW3.9 kmh WSW 4.0 mph6.4 kmh 30.13 in1020.3 mb 0.00 in0.0 mm 0.00 in0.0 mm 0.00 in0.0 mm
02:00 AM 59.2°F15.1°C 58.9°F14.9°C 99% 1.7 mph WSW2.7 kmh WSW 4.0 mph6.4 kmh 30.14 in1020.7 mb 0.00 in0.0 mm 0.00 in0.0 mm 0.00 in0.0 mm
02:05 AM 59.3°F15.2°C 59.0°F15.0°C 99% 1.5 mph WSW2.4 kmh WSW 5.0 mph8.0 kmh 30.14 in1020.7 mb 0.00 in0.0 mm 0.00 in0.0 mm 0.00 in0.0 mm
02:10 AM 59.3°F15.2°C 59.0°F15.0°C 99% 1.0 mph WSW1.6 kmh WSW 5.0 mph8.0 kmh 30.14 in1020.7 mb 0.00 in0.0 mm 0.00 in0.0 mm 0.00 in0.0 mm
02:14 AM 59.4°F15.2°C 59.1°F15.1°C 99% 1.7 mph WSW2.7 kmh WSW 5.0 mph8.0 kmh 30.14 in1020.7 mb 0.00 in0.0 mm 0.00 in0.0 mm 0.00 in0.0 mm
02:19 AM 59.5°F15.3°C 59.2°F15.1°C 99% 1.2 mph WSW1.9 kmh WSW 5.0 mph8.0 kmh 30.14 in1020.7 mb 0.00 in0.0 mm 0.00 in0.0 mm 0.00 in0.0 mm
02:24 AM 59.5°F15.3°C 59.2°F15.1°C 99% 1.2 mph SW1.9 kmh SW 3.0 mph4.8 kmh 30.14 in1020.7 mb 0.00 in0.0 mm 0.00 in0.0 mm 0.00 in0.0 mm
02:29 AM 59.4°F15.2°C 59.1°F15.1°C 99% 1.0 mph WSW1.6 kmh WSW 3.0 mph4.8 kmh 30.14 in1020.7 mb 0.00 in0.0 mm 0.00 in0.0 mm 0.00 in0.0 mm
02:34 AM 59.4°F15.2°C 59.1°F15.1°C 99% Calm Calm 3.0 mph4.8 kmh 30.14 in1020.7 mb 0.00 in0.0 mm 0.00 in0.0 mm 0.00 in0.0 mm
02:39 AM 59.4°F15.2°C 59.1°F15.1°C 99% 1.5 mph SW2.4 kmh SW 3.0 mph4.8 kmh 30.14 in1020.7 mb 0.00 in0.0 mm 0.00 in0.0 mm 0.00 in0.0 mm
02:44 AM 59.4°F15.2°C 59.1°F15.1°C 99% 1.2 mph SW1.9 kmh SW 2.0 mph3.2 kmh 30.14 in1020.7 mb 0.00 in0.0 mm 0.00 in0.0 mm 0.00 in0.0 mm
02:49 AM 59.4°F15.2°C 59.1°F15.1°C 99% 1.0 mph WSW1.6 kmh WSW 2.0 mph3.2 kmh 30.14 in1020.7 mb 0.00 in0.0 mm 0.00 in0.0 mm 0.00 in0.0 mm
02:54 AM 59.4°F15.2°C 59.1°F15.1°C 99% 1.0 mph WSW1.6 kmh WSW 3.0 mph4.8 kmh 30.14 in1020.7 mb 0.00 in0.0 mm 0.00 in0.0 mm 0.00 in0.0 mm
02:59 AM 59.5°F15.3°C 59.2°F15.1°C 99% 1.1 mph SW1.8 kmh SW 3.0 mph4.8 kmh 30.14 in1020.7 mb 0.00 in0.0 mm 0.00 in0.0 mm 0.00 in0.0 mm
03:04 AM 59.5°F15.3°C 59.2°F15.1°C 99% 1.8 mph SW2.9 kmh SW 3.0 mph4.8 kmh 30.14 in1020.7 mb 0.00 in0.0 mm 0.00 in0.0 mm 0.00 in0.0 mm
03:09 AM 59.6°F15.3°C 59.3°F15.2°C 99% 2.1 mph WSW3.4 kmh WSW 4.0 mph6.4 kmh 30.15 in1021.0 mb 0.00 in0.0 mm 0.00 in0.0 mm 0.00 in0.0 mm
03:14 AM 59.6°F15.3°C 59.3°F15.2°C 99% 1.0 mph SW1.6 kmh SW 4.0 mph6.4 kmh 30.15 in1021.0 mb 0.00 in0.0 mm 0.00 in0.0 mm 0.00 in0.0 mm
03:19 AM 59.6°F15.3°C 59.3°F15.2°C 99% Calm Calm 4.0 mph6.4 kmh 30.15 in1021.0 mb 0.00 in0.0 mm 0.00 in0.0 mm 0.00 in0.0 mm
03:24 AM 59.5°F15.3°C 59.2°F15.1°C 99% Calm Calm 4.0 mph6.4 kmh 30.14 in1020.7 mb 0.00 in0.0 mm 0.00 in0.0 mm 0.00 in0.0 mm
03:29 AM 59.6°F15.3°C 59.3°F15.2°C 99% 1.4 mph SW2.3 kmh SW 2.0 mph3.2 kmh 30.14 in1020.7 mb 0.00 in0.0 mm 0.00 in0.0 mm 0.00 in0.0 mm
03:34 AM 59.6°F15.3°C 59.3°F15.2°C 99% 1.0 mph WSW1.6 kmh WSW 2.0 mph3.2 kmh 30.15 in1021.0 mb 0.00 in0.0 mm 0.00 in0.0 mm 0.00 in0.0 mm
03:39 AM 59.6°F15.3°C 59.3°F15.2°C 99% 1.0 mph W1.6 kmh W 2.0 mph3.2 kmh 30.14 in1020.7 mb 0.00 in0.0 mm 0.00 in0.0 mm 0.00 in0.0 mm
03:44 AM 59.6°F15.3°C 59.3°F15.2°C 99% 1.0 mph W1.6 kmh W 2.0 mph3.2 kmh 30.14 in1020.7 mb 0.00 in0.0 mm 0.00 in0.0 mm 0.00 in0.0 mm
03:49 AM 59.6°F15.3°C 59.3°F15.2°C 99% Calm Calm 2.0 mph3.2 kmh 30.14 in1020.7 mb 0.00 in0.0 mm 0.00 in0.0 mm 0.00 in0.0 mm
03:54 AM 59.6°F15.3°C 59.3°F15.2°C 99% 1.0 mph WSW1.6 kmh WSW 1.0 mph1.6 kmh 30.15 in1021.0 mb 0.00 in0.0 mm 0.00 in0.0 mm 0.00 in0.0 mm
03:59 AM 59.6°F15.3°C 59.3°F15.2°C 99% 1.0 mph WSW1.6 kmh WSW 2.0 mph3.2 kmh 30.15 in1021.0 mb 0.00 in0.0 mm 0.00 in0.0 mm 0.00 in0.0 mm
04:04 AM 59.6°F15.3°C 59.3°F15.2°C 99% 1.0 mph WSW1.6 kmh WSW 2.0 mph3.2 kmh 30.15 in1021.0 mb 0.00 in0.0 mm 0.00 in0.0 mm 0.00 in0.0 mm
04:09 AM 59.6°F15.3°C 59.3°F15.2°C 99% 1.0 mph W1.6 kmh W 2.0 mph3.2 kmh 30.15 in1021.0 mb 0.00 in0.0 mm 0.00 in0.0 mm 0.00 in0.0 mm
04:14 AM 59.6°F15.3°C 59.3°F15.2°C 99% Calm Calm 2.0 mph3.2 kmh 30.15 in1021.0 mb 0.00 in0.0 mm 0.00 in0.0 mm 0.00 in0.0 mm
04:19 AM 59.6°F15.3°C 59.3°F15.2°C 99% Calm Calm 2.0 mph3.2 kmh 30.14 in1020.7 mb 0.00 in0.0 mm 0.00 in0.0 mm 0.00 in0.0 mm
04:24 AM 59.6°F15.3°C 59.3°F15.2°C 99% Calm Calm 2.0 mph3.2 kmh 30.14 in1020.7 mb 0.00 in0.0 mm 0.00 in0.0 mm 0.00 in0.0 mm
04:29 AM 59.6°F15.3°C 59.3°F15.2°C 99% 1.0 mph W1.6 kmh W 1.0 mph1.6 kmh 30.14 in1020.7 mb 0.00 in0.0 mm 0.00 in0.0 mm 0.00 in0.0 mm
04:34 AM 59.6°F15.3°C 59.3°F15.2°C 99% Calm Calm 1.0 mph1.6 kmh 30.14 in1020.7 mb 0.00 in0.0 mm 0.00 in0.0 mm 0.00 in0.0 mm
04:39 AM 59.6°F15.3°C 59.3°F15.2°C 99% 1.3 mph W2.1 kmh W 2.0 mph3.2 kmh 30.14 in1020.7 mb 0.00 in0.0 mm 0.00 in0.0 mm 0.00 in0.0 mm
04:44 AM 59.6°F15.3°C 59.3°F15.2°C 99% Calm Calm 2.0 mph3.2 kmh 30.14 in1020.7 mb 0.00 in0.0 mm 0.00 in0.0 mm 0.00 in0.0 mm
04:49 AM 59.5°F15.3°C 59.2°F15.1°C 99% 3.0 mph WNW4.8 kmh WNW 4.0 mph6.4 kmh 30.14 in1020.7 mb 0.00 in0.0 mm 0.00 in0.0 mm 0.00 in0.0 mm
04:54 AM 59.3°F15.2°C 59.0°F15.0°C 99% 1.6 mph NW2.6 kmh NW 4.0 mph6.4 kmh 30.14 in1020.7 mb 0.00 in0.0 mm 0.00 in0.0 mm 0.00 in0.0 mm
04:59 AM 59.2°F15.1°C 58.9°F14.9°C 99% 1.0 mph W1.6 kmh W 4.0 mph6.4 kmh 30.14 in1020.7 mb 0.00 in0.0 mm 0.00 in0.0 mm 0.00 in0.0 mm
05:04 AM 59.0°F15.0°C 58.7°F14.8°C 99% 1.0 mph WNW1.6 kmh WNW 4.0 mph6.4 kmh 30.14 in1020.7 mb 0.00 in0.0 mm 0.00 in0.0 mm 0.00 in0.0 mm
05:09 AM 58.9°F14.9°C 58.6°F14.8°C 99% 1.0 mph W1.6 kmh W 4.0 mph6.4 kmh 30.15 in1021.0 mb 0.00 in0.0 mm 0.00 in0.0 mm 0.00 in0.0 mm
05:14 AM 58.8°F14.9°C 58.5°F14.7°C 99% 1.0 mph NW1.6 kmh NW 3.0 mph4.8 kmh 30.15 in1021.0 mb 0.00 in0.0 mm 0.00 in0.0 mm 0.00 in0.0 mm
05:19 AM 58.7°F14.8°C 58.4°F14.7°C 99% 1.0 mph NW1.6 kmh NW 3.0 mph4.8 kmh 30.15 in1021.0 mb 0.00 in0.0 mm 0.00 in0.0 mm 0.00 in0.0 mm
05:24 AM 58.6°F14.8°C 58.3°F14.6°C 99% 1.0 mph WNW1.6 kmh WNW 2.0 mph3.2 kmh 30.16 in1021.3 mb 0.00 in0.0 mm 0.00 in0.0 mm 0.00 in0.0 mm
05:29 AM 58.4°F14.7°C 58.1°F14.5°C 99% 1.5 mph WNW2.4 kmh WNW 3.0 mph4.8 kmh 30.17 in1021.7 mb 0.00 in0.0 mm 0.00 in0.0 mm 0.00 in0.0 mm
05:34 AM 58.3°F14.6°C 57.7°F14.3°C 98% 1.2 mph NW1.9 kmh NW 3.0 mph4.8 kmh 30.17 in1021.7 mb 0.00 in0.0 mm 0.00 in0.0 mm 0.00 in0.0 mm
05:39 AM 58.1°F14.5°C 57.5°F14.2°C 98% 1.0 mph NW1.6 kmh NW 3.0 mph4.8 kmh 30.17 in1021.7 mb 0.00 in0.0 mm 0.00 in0.0 mm 0.00 in0.0 mm
05:44 AM 57.9°F14.4°C 57.3°F14.1°C 98% 1.9 mph NNW3.1 kmh NNW 3.0 mph4.8 kmh 30.16 in1021.3 mb 0.00 in0.0 mm 0.00 in0.0 mm 0.00 in0.0 mm
05:49 AM 57.6°F14.2°C 57.0°F13.9°C 98% 1.0 mph NW1.6 kmh NW 3.0 mph4.8 kmh 30.16 in1021.3 mb 0.00 in0.0 mm 0.00 in0.0 mm 0.00 in0.0 mm
05:54 AM 57.5°F14.2°C 56.9°F13.8°C 98% Calm Calm 3.0 mph4.8 kmh 30.17 in1021.7 mb 0.00 in0.0 mm 0.00 in0.0 mm 0.00 in0.0 mm
05:59 AM 57.4°F14.1°C 56.8°F13.8°C 98% Calm Calm 3.0 mph4.8 kmh 30.18 in1022.0 mb 0.00 in0.0 mm 0.00 in0.0 mm 0.00 in0.0 mm
06:04 AM 57.2°F14.0°C 56.6°F13.7°C 98% Calm Calm 1.0 mph1.6 kmh 30.18 in1022.0 mb 0.00 in0.0 mm 0.00 in0.0 mm 0.00 in0.0 mm
06:09 AM 57.0°F13.9°C 56.4°F13.6°C 98% Calm Calm 1.0 mph1.6 kmh 30.17 in1021.7 mb 0.00 in0.0 mm 0.00 in0.0 mm 0.00 in0.0 mm
06:14 AM 56.9°F13.8°C 56.3°F13.5°C 98% Calm Calm -- 30.17 in1021.7 mb 0.00 in0.0 mm 0.00 in0.0 mm 0.00 in0.0 mm
06:19 AM 56.8°F13.8°C 56.2°F13.4°C 98% Calm Calm -- 30.18 in1022.0 mb 0.00 in0.0 mm 0.00 in0.0 mm 0.00 in0.0 mm
06:24 AM 56.6°F13.7°C 56.0°F13.3°C 98% Calm Calm 1.0 mph1.6 kmh 30.18 in1022.0 mb 0.00 in0.0 mm 0.00 in0.0 mm 0.00 in0.0 mm
06:29 AM 56.5°F13.6°C 55.9°F13.3°C 98% 1.0 mph N1.6 kmh N 1.0 mph1.6 kmh 30.18 in1022.0 mb 0.00 in0.0 mm 0.00 in0.0 mm 0.00 in0.0 mm
06:34 AM 56.4°F13.6°C 55.8°F13.2°C 98% 1.0 mph NNW1.6 kmh NNW 1.0 mph1.6 kmh 30.18 in1022.0 mb 0.00 in0.0 mm 0.00 in0.0 mm 0.00 in0.0 mm
06:39 AM 56.3°F13.5°C 55.7°F13.2°C 98% 1.0 mph NW1.6 kmh NW 1.0 mph1.6 kmh 30.19 in1022.4 mb 0.00 in0.0 mm 0.00 in0.0 mm 0.00 in0.0 mm
06:45 AM 56.3°F13.5°C 55.7°F13.2°C 98% 1.3 mph NW2.1 kmh NW 3.0 mph4.8 kmh 30.19 in1022.4 mb 0.00 in0.0 mm 0.00 in0.0 mm 0.00 in0.0 mm
06:49 AM 56.2°F13.4°C 55.6°F13.1°C 98% 1.6 mph NW2.6 kmh NW 3.0 mph4.8 kmh 30.19 in1022.4 mb 0.00 in0.0 mm 0.00 in0.0 mm 0.00 in0.0 mm
06:55 AM 56.2°F13.4°C 55.6°F13.1°C 98% Calm Calm 3.0 mph4.8 kmh 30.19 in1022.4 mb 0.00 in0.0 mm 0.00 in0.0 mm 0.00 in0.0 mm
07:00 AM 56.1°F13.4°C 55.5°F13.1°C 98% 1.0 mph NW1.6 kmh NW 3.0 mph4.8 kmh 30.19 in1022.4 mb 0.00 in0.0 mm 0.00 in0.0 mm 0.00 in0.0 mm
07:05 AM 56.2°F13.4°C 55.6°F13.1°C 98% 1.0 mph WNW1.6 kmh WNW 3.0 mph4.8 kmh 30.20 in1022.7 mb 0.00 in0.0 mm 0.00 in0.0 mm 0.00 in0.0 mm
07:10 AM 56.1°F13.4°C 55.5°F13.1°C 98% 1.0 mph NW1.6 kmh NW 3.0 mph4.8 kmh 30.19 in1022.4 mb 0.00 in0.0 mm 0.00 in0.0 mm 0.00 in0.0 mm
07:13 AM 56.0°F13.3°C 55.4°F13.0°C 98% 1.0 mph NNW1.6 kmh NNW 3.0 mph4.8 kmh 30.20 in1022.7 mb 0.00 in0.0 mm 0.00 in0.0 mm 0.00 in0.0 mm
07:19 AM 56.0°F13.3°C 55.1°F12.8°C 97% 1.2 mph NNW1.9 kmh NNW 2.0 mph3.2 kmh 30.20 in1022.7 mb 0.00 in0.0 mm 0.00 in0.0 mm 0.00 in0.0 mm
07:24 AM 56.0°F13.3°C 55.1°F12.8°C 97% 1.0 mph NW1.6 kmh NW 2.0 mph3.2 kmh 30.20 in1022.7 mb 0.00 in0.0 mm 0.00 in0.0 mm 0.00 in0.0 mm
07:29 AM 56.0°F13.3°C 55.1°F12.8°C 97% Calm Calm 2.0 mph3.2 kmh 30.20 in1022.7 mb 0.00 in0.0 mm 0.00 in0.0 mm 0.00 in0.0 mm
07:34 AM 55.9°F13.3°C 55.0°F12.8°C 97% 1.4 mph NW2.3 kmh NW 4.0 mph6.4 kmh 30.21 in1023.0 mb 0.00 in0.0 mm 0.00 in0.0 mm 0.00 in0.0 mm
07:39 AM 55.9°F13.3°C 55.0°F12.8°C 97% 1.0 mph NW1.6 kmh NW 4.0 mph6.4 kmh 30.20 in1022.7 mb 0.00 in0.0 mm 0.00 in0.0 mm 0.00 in0.0 mm
07:44 AM 55.9°F13.3°C 55.1°F12.8°C 97% Calm Calm 4.0 mph6.4 kmh 30.21 in1023.0 mb 0.00 in0.0 mm 0.00 in0.0 mm 0.00 in0.0 mm
07:49 AM 55.9°F13.3°C 55.0°F12.8°C 97% Calm Calm 4.0 mph6.4 kmh 30.22 in1023.4 mb 0.00 in0.0 mm 0.00 in0.0 mm 0.00 in0.0 mm
07:54 AM 55.8°F13.2°C 54.6°F12.6°C 96% 1.2 mph NW1.9 kmh NW 2.0 mph3.2 kmh 30.22 in1023.4 mb 0.00 in0.0 mm 0.00 in0.0 mm 0.00 in0.0 mm
07:59 AM 55.7°F13.2°C 54.5°F12.5°C 96% 1.6 mph NNW2.6 kmh NNW 4.0 mph6.4 kmh 30.22 in1023.4 mb 0.00 in0.0 mm 0.00 in0.0 mm 0.00 in0.0 mm
08:04 AM 55.7°F13.2°C 54.5°F12.5°C 96% 2.1 mph N3.4 kmh N 4.0 mph6.4 kmh 30.22 in1023.4 mb 0.00 in0.0 mm 0.00 in0.0 mm 0.00 in0.0 mm
08:09 AM 55.7°F13.2°C 54.6°F12.6°C 96% 1.6 mph NW2.6 kmh NW 4.0 mph6.4 kmh 30.22 in1023.4 mb 0.00 in0.0 mm 0.00 in0.0 mm 0.00 in0.0 mm
08:14 AM 55.7°F13.2°C 54.5°F12.5°C 96% Calm Calm 4.0 mph6.4 kmh 30.22 in1023.4 mb 0.00 in0.0 mm 0.00 in0.0 mm 0.00 in0.0 mm
08:19 AM 55.6°F13.1°C 54.4°F12.4°C 96% 2.2 mph NNW3.5 kmh NNW 4.0 mph6.4 kmh 30.22 in1023.4 mb 0.00 in0.0 mm 0.00 in0.0 mm 0.00 in0.0 mm
08:24 AM 55.5°F13.1°C 54.3°F12.4°C 96% 1.3 mph NNW2.1 kmh NNW 4.0 mph6.4 kmh 30.22 in1023.4 mb 0.00 in0.0 mm 0.00 in0.0 mm 0.00 in0.0 mm
08:29 AM 55.5°F13.1°C 54.3°F12.4°C 96% 1.4 mph NNW2.3 kmh NNW 4.0 mph6.4 kmh 30.23 in1023.7 mb 0.00 in0.0 mm 0.00 in0.0 mm 0.00 in0.0 mm
08:34 AM 55.5°F13.1°C 54.3°F12.4°C 96% 1.0 mph NNW1.6 kmh NNW 4.0 mph6.4 kmh 30.23 in1023.7 mb 0.00 in0.0 mm 0.00 in0.0 mm 0.00 in0.0 mm
08:39 AM 55.5°F13.1°C 54.3°F12.4°C 96% 1.3 mph NNW2.1 kmh NNW 2.0 mph3.2 kmh 30.23 in1023.7 mb 0.00 in0.0 mm 0.00 in0.0 mm 0.00 in0.0 mm
08:44 AM 55.4°F13.0°C 54.0°F12.2°C 95% 1.0 mph NNW1.6 kmh NNW 5.0 mph8.0 kmh 30.24 in1024.0 mb 0.00 in0.0 mm 0.00 in0.0 mm 0.00 in0.0 mm
08:49 AM 55.4°F13.0°C 54.0°F12.2°C 95% 1.0 mph NW1.6 kmh NW 5.0 mph8.0 kmh 30.24 in1024.0 mb 0.00 in0.0 mm 0.00 in0.0 mm 0.00 in0.0 mm
08:54 AM 55.3°F12.9°C 53.9°F12.2°C 95% 1.3 mph NW2.1 kmh NW 5.0 mph8.0 kmh 30.25 in1024.4 mb 0.00 in0.0 mm 0.00 in0.0 mm 0.00 in0.0 mm
08:59 AM 55.3°F12.9°C 53.9°F12.2°C 95% 1.4 mph NW2.3 kmh NW 5.0 mph8.0 kmh 30.25 in1024.4 mb 0.00 in0.0 mm 0.00 in0.0 mm 0.00 in0.0 mm
09:04 AM 55.2°F12.9°C 53.8°F12.1°C 95% 1.6 mph NW2.6 kmh NW 4.0 mph6.4 kmh 30.25 in1024.4 mb 0.00 in0.0 mm 0.00 in0.0 mm 0.00 in0.0 mm
09:09 AM 55.2°F12.9°C 53.8°F12.1°C 95% 1.7 mph NW2.7 kmh NW 6.0 mph9.7 kmh 30.25 in1024.4 mb 0.00 in0.0 mm 0.00 in0.0 mm 0.00 in0.0 mm
09:14 AM 55.2°F12.9°C 53.5°F11.9°C 94% 3.0 mph NW4.8 kmh NW 6.0 mph9.7 kmh 30.25 in1024.4 mb 0.00 in0.0 mm 0.00 in0.0 mm 0.00 in0.0 mm
09:19 AM 55.2°F12.9°C 53.5°F11.9°C 94% 3.7 mph NNW6.0 kmh NNW 6.0 mph9.7 kmh 30.25 in1024.4 mb 0.00 in0.0 mm 0.00 in0.0 mm 0.00 in0.0 mm
09:24 AM 55.3°F12.9°C 53.6°F12.0°C 94% 1.3 mph WNW2.1 kmh WNW 6.0 mph9.7 kmh 30.26 in1024.7 mb 0.00 in0.0 mm 0.00 in0.0 mm 0.00 in0.0 mm
09:29 AM 55.3°F12.9°C 53.6°F12.0°C 94% 1.9 mph NNW3.1 kmh NNW 6.0 mph9.7 kmh 30.25 in1024.4 mb 0.00 in0.0 mm 0.00 in0.0 mm 0.00 in0.0 mm
09:34 AM 55.4°F13.0°C 53.4°F11.9°C 93% 1.3 mph NW2.1 kmh NW 6.0 mph9.7 kmh 30.25 in1024.4 mb 0.00 in0.0 mm 0.00 in0.0 mm 0.00 in0.0 mm
09:39 AM 55.8°F13.2°C 54.1°F12.3°C 94% 1.0 mph NNW1.6 kmh NNW 5.0 mph8.0 kmh 30.26 in1024.7 mb 0.00 in0.0 mm 0.00 in0.0 mm 0.00 in0.0 mm
09:44 AM 56.1°F13.4°C 54.1°F12.3°C 93% 2.1 mph N3.4 kmh N 6.0 mph9.7 kmh 30.25 in1024.4 mb 0.00 in0.0 mm 0.00 in0.0 mm 0.00 in0.0 mm
09:49 AM 56.5°F13.6°C 54.2°F12.3°C 92% 1.6 mph NNW2.6 kmh NNW 6.0 mph9.7 kmh 30.25 in1024.4 mb 0.00 in0.0 mm 0.00 in0.0 mm 0.00 in0.0 mm
09:54 AM 56.7°F13.7°C 54.1°F12.3°C 91% 1.3 mph NW2.1 kmh NW 6.0 mph9.7 kmh 30.25 in1024.4 mb 0.00 in0.0 mm 0.00 in0.0 mm 0.00 in0.0 mm
09:59 AM 57.1°F13.9°C 54.2°F12.3°C 90% 3.0 mph N4.8 kmh N 8.0 mph12.9 kmh 30.26 in1024.7 mb 0.00 in0.0 mm 0.00 in0.0 mm 0.00 in0.0 mm
10:04 AM 57.4°F14.1°C 54.2°F12.3°C 89% 1.6 mph NNW2.6 kmh NNW 8.0 mph12.9 kmh 30.26 in1024.7 mb 0.00 in0.0 mm 0.00 in0.0 mm 0.00 in0.0 mm
10:09 AM 57.7°F14.3°C 54.2°F12.3°C 88% 1.6 mph NNW2.6 kmh NNW 8.0 mph12.9 kmh 30.26 in1024.7 mb 0.00 in0.0 mm 0.00 in0.0 mm 0.00 in0.0 mm
10:14 AM 57.8°F14.3°C 53.9°F12.2°C 87% 2.8 mph NW4.5 kmh NW 8.0 mph12.9 kmh 30.27 in1025.1 mb 0.00 in0.0 mm 0.00 in0.0 mm 0.00 in0.0 mm
10:19 AM 57.9°F14.4°C 53.7°F12.1°C 86% 3.1 mph NNW5.0 kmh NNW 8.0 mph12.9 kmh 30.27 in1025.1 mb 0.00 in0.0 mm 0.00 in0.0 mm 0.00 in0.0 mm
10:24 AM 57.9°F14.4°C 53.7°F12.1°C 86% 2.6 mph NW4.2 kmh NW 8.0 mph12.9 kmh 30.26 in1024.7 mb 0.00 in0.0 mm 0.00 in0.0 mm 0.00 in0.0 mm
10:29 AM 58.0°F14.4°C 53.8°F12.1°C 86% 1.3 mph NW2.1 kmh NW 8.0 mph12.9 kmh 30.26 in1024.7 mb 0.00 in0.0 mm 0.00 in0.0 mm 0.00 in0.0 mm
10:34 AM 58.0°F14.4°C 53.8°F12.1°C 86% 2.6 mph NNW4.2 kmh NNW 6.0 mph9.7 kmh 30.26 in1024.7 mb 0.00 in0.0 mm 0.00 in0.0 mm 0.00 in0.0 mm
10:39 AM 57.9°F14.4°C 53.4°F11.9°C 85% 2.8 mph NW4.5 kmh NW 6.0 mph9.7 kmh 30.27 in1025.1 mb 0.00 in0.0 mm 0.00 in0.0 mm 0.00 in0.0 mm
10:44 AM 57.8°F14.3°C 53.3°F11.8°C 85% 1.9 mph NW3.1 kmh NW 5.0 mph8.0 kmh 30.27 in1025.1 mb 0.00 in0.0 mm 0.00 in0.0 mm 0.00 in0.0 mm
10:49 AM 57.9°F14.4°C 53.4°F11.9°C 85% 1.9 mph NNW3.1 kmh NNW 5.0 mph8.0 kmh 30.26 in1024.7 mb 0.00 in0.0 mm 0.00 in0.0 mm 0.00 in0.0 mm
10:54 AM 58.0°F14.4°C 53.5°F11.9°C 85% 1.5 mph N2.4 kmh N 5.0 mph8.0 kmh 30.26 in1024.7 mb 0.00 in0.0 mm 0.00 in0.0 mm 0.00 in0.0 mm
10:59 AM 58.1°F14.5°C 53.6°F12.0°C 85% 1.0 mph NW1.6 kmh NW 5.0 mph8.0 kmh 30.25 in1024.4 mb 0.00 in0.0 mm 0.00 in0.0 mm 0.00 in0.0 mm
11:04 AM 58.1°F14.5°C 53.9°F12.2°C 86% 1.8 mph N2.9 kmh N 5.0 mph8.0 kmh 30.25 in1024.4 mb 0.00 in0.0 mm 0.00 in0.0 mm 0.00 in0.0 mm
11:09 AM 58.3°F14.6°C 54.1°F12.3°C 86% 1.1 mph NW1.8 kmh NW 4.0 mph6.4 kmh 30.25 in1024.4 mb 0.00 in0.0 mm 0.00 in0.0 mm 0.00 in0.0 mm
11:14 AM 58.2°F14.6°C 53.7°F12.1°C 85% 2.1 mph NW3.4 kmh NW 4.0 mph6.4 kmh 30.24 in1024.0 mb 0.00 in0.0 mm 0.00 in0.0 mm 0.00 in0.0 mm
11:19 AM 58.4°F14.7°C 53.9°F12.2°C 85% 1.8 mph NW2.9 kmh NW 4.0 mph6.4 kmh 30.24 in1024.0 mb 0.00 in0.0 mm 0.00 in0.0 mm 0.00 in0.0 mm
11:24 AM 58.8°F14.9°C 54.3°F12.4°C 85% Calm Calm 4.0 mph6.4 kmh 30.24 in1024.0 mb 0.00 in0.0 mm 0.00 in0.0 mm 0.00 in0.0 mm
11:29 AM 59.2°F15.1°C 54.4°F12.4°C 84% 1.0 mph 1.6 kmh 4.0 mph6.4 kmh 30.24 in1024.0 mb 0.00 in0.0 mm 0.00 in0.0 mm 0.00 in0.0 mm
11:34 AM 59.3°F15.2°C 54.2°F12.3°C 83% 1.1 mph N1.8 kmh N 4.0 mph6.4 kmh 30.23 in1023.7 mb 0.00 in0.0 mm 0.00 in0.0 mm 0.00 in0.0 mm
11:39 AM 59.5°F15.3°C 54.3°F12.4°C 83% 1.0 mph NNW1.6 kmh NNW 4.0 mph6.4 kmh 30.23 in1023.7 mb 0.00 in0.0 mm 0.00 in0.0 mm 0.00 in0.0 mm
11:44 AM 59.7°F15.4°C 54.5°F12.5°C 83% 1.0 mph NW1.6 kmh NW 4.0 mph6.4 kmh 30.23 in1023.7 mb 0.00 in0.0 mm 0.00 in0.0 mm 0.00 in0.0 mm
11:49 AM 59.7°F15.4°C 53.9°F12.2°C 81% 1.2 mph NW1.9 kmh NW 4.0 mph6.4 kmh 30.23 in1023.7 mb 0.00 in0.0 mm 0.00 in0.0 mm 0.00 in0.0 mm
11:54 AM 59.8°F15.4°C 54.0°F12.2°C 81% 1.1 mph NW1.8 kmh NW 4.0 mph6.4 kmh 30.23 in1023.7 mb 0.00 in0.0 mm 0.00 in0.0 mm 0.00 in0.0 mm
11:59 AM 59.8°F15.4°C 54.0°F12.2°C 81% 1.0 mph NW1.6 kmh NW 4.0 mph6.4 kmh 30.22 in1023.4 mb 0.00 in0.0 mm 0.00 in0.0 mm 0.00 in0.0 mm
12:04 PM 60.4°F15.8°C 54.6°F12.6°C 81% 1.0 mph NNE1.6 kmh NNE 3.0 mph4.8 kmh 30.22 in1023.4 mb 0.00 in0.0 mm 0.00 in0.0 mm 0.00 in0.0 mm
12:09 PM 60.5°F15.8°C 54.4°F12.4°C 80% 1.0 mph NE1.6 kmh NE 4.0 mph6.4 kmh 30.22 in1023.4 mb 0.00 in0.0 mm 0.00 in0.0 mm 0.00 in0.0 mm
12:14 PM 60.8°F16.0°C 55.0°F12.8°C 81% 2.3 mph NW3.7 kmh NW 4.0 mph6.4 kmh 30.21 in1023.0 mb 0.00 in0.0 mm 0.00 in0.0 mm 0.00 in0.0 mm
12:19 PM 60.8°F16.0°C 54.6°F12.6°C 80% 1.2 mph NNE1.9 kmh NNE 4.0 mph6.4 kmh 30.20 in1022.7 mb 0.00 in0.0 mm 0.00 in0.0 mm 0.00 in0.0 mm
12:24 PM 60.9°F16.1°C 54.4°F12.4°C 79% 1.0 mph WNW1.6 kmh WNW 3.0 mph4.8 kmh 30.20 in1022.7 mb 0.00 in0.0 mm 0.00 in0.0 mm 0.00 in0.0 mm
12:29 PM 61.7°F16.5°C 55.5°F13.1°C 80% 1.0 mph NNE1.6 kmh NNE 3.0 mph4.8 kmh 30.20 in1022.7 mb 0.00 in0.0 mm 0.00 in0.0 mm 0.00 in0.0 mm
12:34 PM 62.0°F16.7°C 55.4°F13.0°C 79% Calm Calm 3.0 mph4.8 kmh 30.20 in1022.7 mb 0.00 in0.0 mm 0.00 in0.0 mm 0.00 in0.0 mm
12:39 PM 61.8°F16.6°C 55.3°F12.9°C 79% Calm Calm 4.0 mph6.4 kmh 30.19 in1022.4 mb 0.00 in0.0 mm 0.00 in0.0 mm 0.00 in0.0 mm
12:44 PM 62.0°F16.7°C 55.1°F12.8°C 78% 1.0 mph N1.6 kmh N 4.0 mph6.4 kmh 30.19 in1022.4 mb 0.00 in0.0 mm 0.00 in0.0 mm 0.00 in0.0 mm
12:49 PM 62.1°F16.7°C 55.2°F12.9°C 78% 1.8 mph N2.9 kmh N 4.0 mph6.4 kmh 30.19 in1022.4 mb 0.00 in0.0 mm 0.00 in0.0 mm 0.00 in0.0 mm
12:54 PM 62.3°F16.8°C 55.1°F12.8°C 77% 1.6 mph N2.6 kmh N 4.0 mph6.4 kmh 30.18 in1022.0 mb 0.00 in0.0 mm 0.00 in0.0 mm 0.00 in0.0 mm
12:59 PM 62.2°F16.8°C 55.7°F13.2°C 79% 1.0 mph NE1.6 kmh NE 4.0 mph6.4 kmh 30.17 in1021.7 mb 0.00 in0.0 mm 0.00 in0.0 mm 0.00 in0.0 mm
01:04 PM 62.2°F16.8°C 55.7°F13.2°C 79% 1.7 mph NNE2.7 kmh NNE 4.0 mph6.4 kmh 30.18 in1022.0 mb 0.00 in0.0 mm 0.00 in0.0 mm 0.00 in0.0 mm
01:09 PM 62.3°F16.8°C 55.4°F13.0°C 78% 1.0 mph NW1.6 kmh NW 4.0 mph6.4 kmh 30.18 in1022.0 mb 0.00 in0.0 mm 0.00 in0.0 mm 0.00 in0.0 mm
01:14 PM 62.4°F16.9°C 55.5°F13.1°C 78% 1.0 mph NW1.6 kmh NW 4.0 mph6.4 kmh 30.18 in1022.0 mb 0.00 in0.0 mm 0.00 in0.0 mm 0.00 in0.0 mm
01:19 PM 62.4°F16.9°C 55.5°F13.1°C 78% Calm Calm 4.0 mph6.4 kmh 30.18 in1022.0 mb 0.00 in0.0 mm 0.00 in0.0 mm 0.00 in0.0 mm
01:24 PM 62.5°F16.9°C 55.3°F12.9°C 77% 1.1 mph NW1.8 kmh NW 2.0 mph3.2 kmh 30.17 in1021.7 mb 0.00 in0.0 mm 0.00 in0.0 mm 0.00 in0.0 mm
01:29 PM 62.4°F16.9°C 55.5°F13.1°C 78% 1.0 mph NW1.6 kmh NW 3.0 mph4.8 kmh 30.18 in1022.0 mb 0.00 in0.0 mm 0.00 in0.0 mm 0.00 in0.0 mm
01:34 PM 62.7°F17.1°C 55.5°F13.1°C 77% 1.8 mph NW2.9 kmh NW 3.0 mph4.8 kmh 30.18 in1022.0 mb 0.00 in0.0 mm 0.00 in0.0 mm 0.00 in0.0 mm
01:39 PM 62.8°F17.1°C 55.6°F13.1°C 77% 1.1 mph NNW1.8 kmh NNW 3.0 mph4.8 kmh 30.18 in1022.0 mb 0.00 in0.0 mm 0.00 in0.0 mm 0.00 in0.0 mm
01:44 PM 63.0°F17.2°C 55.4°F13.0°C 76% 2.8 mph WNW4.5 kmh WNW 5.0 mph8.0 kmh 30.18 in1022.0 mb 0.00 in0.0 mm 0.00 in0.0 mm 0.00 in0.0 mm
01:49 PM 63.0°F17.2°C 55.4°F13.0°C 76% 1.9 mph NW3.1 kmh NW 6.0 mph9.7 kmh 30.18 in1022.0 mb 0.00 in0.0 mm 0.00 in0.0 mm 0.00 in0.0 mm
01:54 PM 63.5°F17.5°C 55.4°F13.0°C 75% 1.9 mph NW3.1 kmh NW 6.0 mph9.7 kmh 30.18 in1022.0 mb 0.00 in0.0 mm 0.00 in0.0 mm 0.00 in0.0 mm
01:59 PM 63.4°F17.4°C 54.6°F12.6°C 73% 2.1 mph WNW3.4 kmh WNW 6.0 mph9.7 kmh 30.18 in1022.0 mb 0.00 in0.0 mm 0.00 in0.0 mm 0.00 in0.0 mm
02:04 PM 63.5°F17.5°C 54.8°F12.7°C 73% 1.8 mph NW2.9 kmh NW 6.0 mph9.7 kmh 30.18 in1022.0 mb 0.00 in0.0 mm 0.00 in0.0 mm 0.00 in0.0 mm
02:09 PM 63.7°F17.6°C 55.0°F12.8°C 73% 1.2 mph WNW1.9 kmh WNW 5.0 mph8.0 kmh 30.18 in1022.0 mb 0.00 in0.0 mm 0.00 in0.0 mm 0.00 in0.0 mm
02:13 PM 63.8°F17.7°C 54.7°F12.6°C 72% 1.9 mph NW3.1 kmh NW 6.0 mph9.7 kmh 30.18 in1022.0 mb 0.00 in0.0 mm 0.00 in0.0 mm 0.00 in0.0 mm
02:18 PM 63.8°F17.7°C 54.6°F12.6°C 72% 2.2 mph WNW3.5 kmh WNW 6.0 mph9.7 kmh 30.18 in1022.0 mb 0.00 in0.0 mm 0.00 in0.0 mm 0.00 in0.0 mm
02:23 PM 64.2°F17.9°C 55.1°F12.8°C 72% 2.0 mph WNW3.2 kmh WNW 6.0 mph9.7 kmh 30.18 in1022.0 mb 0.00 in0.0 mm 0.00 in0.0 mm 0.00 in0.0 mm
02:28 PM 64.4°F18.0°C 54.9°F12.7°C 71% 3.4 mph W5.5 kmh W 6.0 mph9.7 kmh 30.18 in1022.0 mb 0.00 in0.0 mm 0.00 in0.0 mm 0.00 in0.0 mm
02:33 PM 64.4°F18.0°C 54.9°F12.7°C 71% 3.1 mph WNW5.0 kmh WNW 6.0 mph9.7 kmh 30.18 in1022.0 mb 0.00 in0.0 mm 0.00 in0.0 mm 0.00 in0.0 mm
02:38 PM 64.4°F18.0°C 54.9°F12.7°C 71% 1.1 mph W1.8 kmh W 6.0 mph9.7 kmh 30.18 in1022.0 mb 0.00 in0.0 mm 0.00 in0.0 mm 0.00 in0.0 mm
02:43 PM 64.6°F18.1°C 55.1°F12.8°C 71% 1.0 mph WNW1.6 kmh WNW 6.0 mph9.7 kmh 30.18 in1022.0 mb 0.00 in0.0 mm 0.00 in0.0 mm 0.00 in0.0 mm
02:48 PM 65.0°F18.3°C 55.5°F13.1°C 71% Calm Calm 5.0 mph8.0 kmh 30.18 in1022.0 mb 0.00 in0.0 mm 0.00 in0.0 mm 0.00 in0.0 mm
02:53 PM 65.5°F18.6°C 55.1°F12.8°C 69% 1.0 mph WNW1.6 kmh WNW 4.0 mph6.4 kmh 30.18 in1022.0 mb 0.00 in0.0 mm 0.00 in0.0 mm 0.00 in0.0 mm
02:58 PM 65.4°F18.6°C 55.4°F13.0°C 70% Calm Calm 1.0 mph1.6 kmh 30.17 in1021.7 mb 0.00 in0.0 mm 0.00 in0.0 mm 0.00 in0.0 mm
03:03 PM 65.9°F18.8°C 54.2°F12.3°C 66% 3.5 mph WNW5.6 kmh WNW 5.0 mph8.0 kmh 30.17 in1021.7 mb 0.00 in0.0 mm 0.00 in0.0 mm 0.00 in0.0 mm
03:08 PM 66.0°F18.9°C 54.5°F12.5°C 66% 1.0 mph NE1.6 kmh NE 5.0 mph8.0 kmh 30.17 in1021.7 mb 0.00 in0.0 mm 0.00 in0.0 mm 0.00 in0.0 mm
03:13 PM 66.6°F19.2°C 54.6°F12.6°C 65% Calm Calm 5.0 mph8.0 kmh 30.17 in1021.7 mb 0.00 in0.0 mm 0.00 in0.0 mm 0.00 in0.0 mm
03:18 PM 66.9°F19.4°C 54.9°F12.7°C 65% Calm Calm 5.0 mph8.0 kmh 30.17 in1021.7 mb 0.00 in0.0 mm 0.00 in0.0 mm 0.00 in0.0 mm
03:23 PM 66.7°F19.3°C 53.9°F12.2°C 63% Calm Calm 2.0 mph3.2 kmh 30.17 in1021.7 mb 0.00 in0.0 mm 0.00 in0.0 mm 0.00 in0.0 mm
03:28 PM 66.6°F19.2°C 53.8°F12.1°C 63% 1.0 mph NE1.6 kmh NE 1.0 mph1.6 kmh 30.17 in1021.7 mb 0.00 in0.0 mm 0.00 in0.0 mm 0.00 in0.0 mm
03:33 PM 66.5°F19.2°C 53.2°F11.8°C 62% Calm Calm 1.0 mph1.6 kmh 30.17 in1021.7 mb 0.00 in0.0 mm 0.00 in0.0 mm 0.00 in0.0 mm
03:38 PM 66.7°F19.3°C 53.4°F11.9°C 62% 1.0 mph NNW1.6 kmh NNW 1.0 mph1.6 kmh 30.17 in1021.7 mb 0.00 in0.0 mm 0.00 in0.0 mm 0.00 in0.0 mm
03:43 PM 67.0°F19.4°C 53.7°F12.1°C 62% Calm Calm 1.0 mph1.6 kmh 30.17 in1021.7 mb 0.00 in0.0 mm 0.00 in0.0 mm 0.00 in0.0 mm
03:48 PM 67.1°F19.5°C 52.9°F11.6°C 60% Calm Calm 1.0 mph1.6 kmh 30.17 in1021.7 mb 0.00 in0.0 mm 0.00 in0.0 mm 0.00 in0.0 mm
03:53 PM 66.5°F19.2°C 52.3°F11.3°C 60% Calm Calm 1.0 mph1.6 kmh 30.17 in1021.7 mb 0.00 in0.0 mm 0.00 in0.0 mm 0.00 in0.0 mm
03:58 PM 66.2°F19.0°C 51.6°F10.9°C 59% Calm Calm 1.0 mph1.6 kmh 30.17 in1021.7 mb 0.00 in0.0 mm 0.00 in0.0 mm 0.00 in0.0 mm
04:04 PM 66.2°F19.0°C 51.6°F10.9°C 59% Calm Calm 1.0 mph1.6 kmh 30.17 in1021.7 mb 0.00 in0.0 mm 0.00 in0.0 mm 0.00 in0.0 mm
04:09 PM 66.0°F18.9°C 50.9°F10.5°C 58% Calm Calm 1.0 mph1.6 kmh 30.17 in1021.7 mb 0.00 in0.0 mm 0.00 in0.0 mm 0.00 in0.0 mm
04:14 PM 65.9°F18.8°C 50.4°F10.2°C 57% Calm Calm 1.0 mph1.6 kmh 30.17 in1021.7 mb 0.00 in0.0 mm 0.00 in0.0 mm 0.00 in0.0 mm
04:19 PM 65.8°F18.8°C 51.2°F10.7°C 59% Calm Calm 1.0 mph1.6 kmh 30.17 in1021.7 mb 0.00 in0.0 mm 0.00 in0.0 mm 0.00 in0.0 mm
04:24 PM 65.6°F18.7°C 51.9°F11.1°C 61% Calm Calm 1.0 mph1.6 kmh 30.17 in1021.7 mb 0.00 in0.0 mm 0.00 in0.0 mm 0.00 in0.0 mm
04:29 PM 65.4°F18.6°C 52.2°F11.2°C 62% Calm Calm -- 30.17 in1021.7 mb 0.00 in0.0 mm 0.00 in0.0 mm 0.00 in0.0 mm
04:34 PM 65.3°F18.5°C 52.5°F11.4°C 63% Calm Calm -- 30.17 in1021.7 mb 0.00 in0.0 mm 0.00 in0.0 mm 0.00 in0.0 mm
04:39 PM 65.2°F18.4°C 52.9°F11.6°C 64% Calm Calm -- 30.17 in1021.7 mb 0.00 in0.0 mm 0.00 in0.0 mm 0.00 in0.0 mm
04:44 PM 65.1°F18.4°C 52.8°F11.6°C 64% Calm Calm 1.0 mph1.6 kmh 30.17 in1021.7 mb 0.00 in0.0 mm 0.00 in0.0 mm 0.00 in0.0 mm
04:49 PM 65.0°F18.3°C 52.7°F11.5°C 64% Calm Calm 1.0 mph1.6 kmh 30.17 in1021.7 mb 0.00 in0.0 mm 0.00 in0.0 mm 0.00 in0.0 mm
04:54 PM 64.9°F18.3°C 53.0°F11.7°C 65% Calm Calm 1.0 mph1.6 kmh 30.18 in1022.0 mb 0.00 in0.0 mm 0.00 in0.0 mm 0.00 in0.0 mm
04:59 PM 64.7°F18.2°C 54.1°F12.3°C 68% Calm Calm 1.0 mph1.6 kmh 30.18 in1022.0 mb 0.00 in0.0 mm 0.00 in0.0 mm 0.00 in0.0 mm
05:04 PM 64.4°F18.0°C 54.2°F12.3°C 69% Calm Calm -- 30.18 in1022.0 mb 0.00 in0.0 mm 0.00 in0.0 mm 0.00 in0.0 mm
05:09 PM 64.3°F17.9°C 54.5°F12.5°C 70% Calm Calm -- 30.18 in1022.0 mb 0.00 in0.0 mm 0.00 in0.0 mm 0.00 in0.0 mm
05:14 PM 64.1°F17.8°C 54.6°F12.6°C 71% Calm Calm -- 30.18 in1022.0 mb 0.00 in0.0 mm 0.00 in0.0 mm 0.00 in0.0 mm
05:19 PM 64.0°F17.8°C 54.9°F12.7°C 72% Calm Calm -- 30.18 in1022.0 mb 0.00 in0.0 mm 0.00 in0.0 mm 0.00 in0.0 mm
05:24 PM 63.8°F17.7°C 54.7°F12.6°C 72% Calm Calm -- 30.18 in1022.0 mb 0.00 in0.0 mm 0.00 in0.0 mm 0.00 in0.0 mm
05:29 PM 63.7°F17.6°C 55.0°F12.8°C 73% Calm Calm -- 30.18 in1022.0 mb 0.00 in0.0 mm 0.00 in0.0 mm 0.00 in0.0 mm
05:34 PM 63.6°F17.6°C 55.6°F13.1°C 75% 1.0 mph SW1.6 kmh SW 1.0 mph1.6 kmh 30.19 in1022.4 mb 0.00 in0.0 mm 0.00 in0.0 mm 0.00 in0.0 mm
05:39 PM 63.4°F17.4°C 55.8°F13.2°C 76% Calm Calm 1.0 mph1.6 kmh 30.19 in1022.4 mb 0.00 in0.0 mm 0.00 in0.0 mm 0.00 in0.0 mm
05:44 PM 63.2°F17.3°C 56.0°F13.3°C 77% Calm Calm 1.0 mph1.6 kmh 30.19 in1022.4 mb 0.00 in0.0 mm 0.00 in0.0 mm 0.00 in0.0 mm
05:49 PM 63.0°F17.2°C 56.1°F13.4°C 78% Calm Calm 1.0 mph1.6 kmh 30.19 in1022.4 mb 0.00 in0.0 mm 0.00 in0.0 mm 0.00 in0.0 mm
05:54 PM 62.9°F17.2°C 56.0°F13.3°C 78% Calm Calm -- 30.18 in1022.0 mb 0.00 in0.0 mm 0.00 in0.0 mm 0.00 in0.0 mm
05:59 PM 62.7°F17.1°C 56.5°F13.6°C 80% 1.0 mph SW1.6 kmh SW 1.0 mph1.6 kmh 30.19 in1022.4 mb 0.00 in0.0 mm 0.00 in0.0 mm 0.00 in0.0 mm
06:04 PM 62.3°F16.8°C 56.8°F13.8°C 82% Calm Calm 1.0 mph1.6 kmh 30.19 in1022.4 mb 0.00 in0.0 mm 0.00 in0.0 mm 0.00 in0.0 mm
06:09 PM 62.0°F16.7°C 56.5°F13.6°C 82% Calm Calm 1.0 mph1.6 kmh 30.19 in1022.4 mb 0.00 in0.0 mm 0.00 in0.0 mm 0.00 in0.0 mm
06:14 PM 61.8°F16.6°C 56.6°F13.7°C 83% Calm Calm 1.0 mph1.6 kmh 30.18 in1022.0 mb 0.00 in0.0 mm 0.00 in0.0 mm 0.00 in0.0 mm
06:19 PM 61.6°F16.4°C 56.7°F13.7°C 84% Calm Calm -- 30.18 in1022.0 mb 0.00 in0.0 mm 0.00 in0.0 mm 0.00 in0.0 mm
06:24 PM 61.4°F16.3°C 56.5°F13.6°C 84% Calm Calm -- 30.19 in1022.4 mb 0.00 in0.0 mm 0.00 in0.0 mm 0.00 in0.0 mm
06:29 PM 61.3°F16.3°C 56.8°F13.8°C 85% Calm Calm -- 30.19 in1022.4 mb 0.00 in0.0 mm 0.00 in0.0 mm 0.00 in0.0 mm
06:34 PM 61.2°F16.2°C 56.7°F13.7°C 85% Calm Calm -- 30.19 in1022.4 mb 0.00 in0.0 mm 0.00 in0.0 mm 0.00 in0.0 mm
06:39 PM 61.1°F16.2°C 56.6°F13.7°C 85% Calm Calm -- 30.18 in1022.0 mb 0.00 in0.0 mm 0.00 in0.0 mm 0.00 in0.0 mm
06:44 PM 61.1°F16.2°C 56.6°F13.7°C 85% Calm Calm -- 30.19 in1022.4 mb 0.00 in0.0 mm 0.00 in0.0 mm 0.00 in0.0 mm
06:49 PM 61.0°F16.1°C 56.5°F13.6°C 85% Calm Calm -- 30.19 in1022.4 mb 0.00 in0.0 mm 0.00 in0.0 mm 0.00 in0.0 mm
06:54 PM 60.9°F16.1°C 56.4°F13.6°C 85% Calm Calm -- 30.19 in1022.4 mb 0.00 in0.0 mm 0.00 in0.0 mm 0.00 in0.0 mm
06:59 PM 60.9°F16.1°C 56.7°F13.7°C 86% Calm Calm -- 30.19 in1022.4 mb 0.00 in0.0 mm 0.00 in0.0 mm 0.00 in0.0 mm
07:04 PM 60.9°F16.1°C 56.7°F13.7°C 86% Calm Calm -- 30.19 in1022.4 mb 0.00 in0.0 mm 0.00 in0.0 mm 0.00 in0.0 mm
07:09 PM 60.8°F16.0°C 56.6°F13.7°C 86% Calm Calm -- 30.19 in1022.4 mb 0.00 in0.0 mm 0.00 in0.0 mm 0.00 in0.0 mm
07:14 PM 60.7°F15.9°C 56.5°F13.6°C 86% Calm Calm -- 30.19 in1022.4 mb 0.00 in0.0 mm 0.00 in0.0 mm 0.00 in0.0 mm
07:19 PM 60.7°F15.9°C 56.5°F13.6°C 86% Calm Calm -- 30.19 in1022.4 mb 0.00 in0.0 mm 0.00 in0.0 mm 0.00 in0.0 mm
07:24 PM 60.7°F15.9°C 56.5°F13.6°C 86% Calm Calm -- 30.19 in1022.4 mb 0.00 in0.0 mm 0.00 in0.0 mm 0.00 in0.0 mm
07:29 PM 60.7°F15.9°C 56.5°F13.6°C 86% Calm Calm -- 30.20 in1022.7 mb 0.00 in0.0 mm 0.00 in0.0 mm 0.00 in0.0 mm
07:34 PM 60.7°F15.9°C 56.5°F13.6°C 86% Calm Calm -- 30.20 in1022.7 mb 0.00 in0.0 mm 0.00 in0.0 mm 0.00 in0.0 mm
07:39 PM 60.6°F15.9°C 56.4°F13.6°C 86% Calm Calm -- 30.20 in1022.7 mb 0.00 in0.0 mm 0.00 in0.0 mm 0.00 in0.0 mm
07:44 PM 60.5°F15.8°C 56.6°F13.7°C 87% Calm Calm -- 30.20 in1022.7 mb 0.00 in0.0 mm 0.00 in0.0 mm 0.00 in0.0 mm
07:49 PM 60.5°F15.8°C 56.6°F13.7°C 87% Calm Calm -- 30.20 in1022.7 mb 0.00 in0.0 mm 0.00 in0.0 mm 0.00 in0.0 mm
07:54 PM 60.5°F15.8°C 56.6°F13.7°C 87% Calm Calm -- 30.20 in1022.7 mb 0.00 in0.0 mm 0.00 in0.0 mm 0.00 in0.0 mm
07:59 PM 60.4°F15.8°C 56.5°F13.6°C 87% Calm Calm -- 30.20 in1022.7 mb 0.00 in0.0 mm 0.00 in0.0 mm 0.00 in0.0 mm
08:04 PM 60.4°F15.8°C 56.5°F13.6°C 87% Calm Calm -- 30.19 in1022.4 mb 0.00 in0.0 mm 0.00 in0.0 mm 0.00 in0.0 mm
08:09 PM 60.4°F15.8°C 56.5°F13.6°C 87% Calm Calm -- 30.20 in1022.7 mb 0.00 in0.0 mm 0.00 in0.0 mm 0.00 in0.0 mm
08:13 PM 60.4°F15.8°C 56.5°F13.6°C 87% Calm Calm -- 30.19 in1022.4 mb 0.00 in0.0 mm 0.00 in0.0 mm 0.00 in0.0 mm
08:18 PM 60.3°F15.7°C 56.4°F13.6°C 87% Calm Calm -- 30.19 in1022.4 mb 0.00 in0.0 mm 0.00 in0.0 mm 0.00 in0.0 mm
08:23 PM 60.3°F15.7°C 56.4°F13.6°C 87% Calm Calm -- 30.19 in1022.4 mb 0.00 in0.0 mm 0.00 in0.0 mm 0.00 in0.0 mm
08:28 PM 60.2°F15.7°C 56.3°F13.5°C 87% Calm Calm -- 30.19 in1022.4 mb 0.00 in0.0 mm 0.00 in0.0 mm 0.00 in0.0 mm
08:33 PM 60.1°F15.6°C 56.5°F13.6°C 88% Calm Calm -- 30.19 in1022.4 mb 0.00 in0.0 mm 0.00 in0.0 mm 0.00 in0.0 mm
08:38 PM 60.0°F15.6°C 56.4°F13.6°C 88% Calm Calm -- 30.19 in1022.4 mb 0.00 in0.0 mm 0.00 in0.0 mm 0.00 in0.0 mm
08:43 PM 60.0°F15.6°C 56.4°F13.6°C 88% Calm Calm -- 30.19 in1022.4 mb 0.00 in0.0 mm 0.00 in0.0 mm 0.00 in0.0 mm
08:48 PM 60.0°F15.6°C 56.4°F13.6°C 88% Calm Calm -- 30.19 in1022.4 mb 0.00 in0.0 mm 0.00 in0.0 mm 0.00 in0.0 mm
08:53 PM 59.9°F15.5°C 56.3°F13.5°C 88% Calm Calm -- 30.19 in1022.4 mb 0.00 in0.0 mm 0.00 in0.0 mm 0.00 in0.0 mm
08:58 PM 59.9°F15.5°C 56.6°F13.7°C 89% Calm Calm -- 30.19 in1022.4 mb 0.00 in0.0 mm 0.00 in0.0 mm 0.00 in0.0 mm
09:03 PM 59.8°F15.4°C 56.6°F13.7°C 89% Calm Calm -- 30.19 in1022.4 mb 0.00 in0.0 mm 0.00 in0.0 mm 0.00 in0.0 mm
09:08 PM 59.7°F15.4°C 56.5°F13.6°C 89% Calm Calm -- 30.19 in1022.4 mb 0.00 in0.0 mm 0.00 in0.0 mm 0.00 in0.0 mm
09:13 PM 59.7°F15.4°C 56.5°F13.6°C 89% Calm Calm -- 30.19 in1022.4 mb 0.00 in0.0 mm 0.00 in0.0 mm 0.00 in0.0 mm
09:18 PM 59.7°F15.4°C 56.4°F13.6°C 89% Calm Calm -- 30.19 in1022.4 mb 0.00 in0.0 mm 0.00 in0.0 mm 0.00 in0.0 mm
09:24 PM 59.6°F15.3°C 56.6°F13.7°C 90% Calm Calm -- 30.19 in1022.4 mb 0.02 in0.5 mm 0.20 in5.1 mm 0.02 in0.5 mm
09:28 PM 59.3°F15.2°C 56.6°F13.7°C 91% Calm Calm -- 30.20 in1022.7 mb 0.04 in1.0 mm 0.30 in7.6 mm 0.04 in1.0 mm
09:34 PM 58.9°F14.9°C 56.5°F13.6°C 92% Calm Calm -- 30.20 in1022.7 mb 0.06 in1.5 mm 0.20 in5.1 mm 0.06 in1.5 mm
09:39 PM 58.6°F14.8°C 56.5°F13.6°C 93% Calm Calm -- 30.21 in1023.0 mb 0.08 in2.0 mm 0.24 in6.1 mm 0.08 in2.0 mm
09:44 PM 58.4°F14.7°C 56.6°F13.7°C 94% 1.0 mph SW1.6 kmh SW 1.0 mph1.6 kmh 30.21 in1023.0 mb 0.11 in2.8 mm 0.36 in9.1 mm 0.11 in2.8 mm
09:49 PM 58.3°F14.6°C 56.5°F13.6°C 94% Calm Calm 1.0 mph1.6 kmh 30.20 in1022.7 mb 0.13 in3.3 mm 0.24 in6.1 mm 0.13 in3.3 mm
09:54 PM 58.2°F14.6°C 56.7°F13.7°C 95% Calm Calm 1.0 mph1.6 kmh 30.20 in1022.7 mb 0.14 in3.6 mm 0.12 in3.0 mm 0.14 in3.6 mm
09:59 PM 58.1°F14.5°C 56.6°F13.7°C 95% Calm Calm 1.0 mph1.6 kmh 30.20 in1022.7 mb 0.17 in4.3 mm 0.36 in9.1 mm 0.17 in4.3 mm
10:04 PM 58.0°F14.4°C 56.5°F13.6°C 95% Calm Calm 1.0 mph1.6 kmh 30.20 in1022.7 mb 0.18 in4.6 mm 0.01 in0.3 mm 0.18 in4.6 mm
10:09 PM 58.0°F14.4°C 56.8°F13.8°C 96% 1.0 mph SW1.6 kmh SW 1.0 mph1.6 kmh 30.20 in1022.7 mb 0.21 in5.3 mm 0.36 in9.1 mm 0.21 in5.3 mm
10:14 PM 57.9°F14.4°C 56.7°F13.7°C 96% 1.0 mph SW1.6 kmh SW 1.0 mph1.6 kmh 30.20 in1022.7 mb 0.25 in6.4 mm 0.48 in12.2 mm 0.25 in6.4 mm
10:19 PM 57.8°F14.3°C 56.6°F13.7°C 96% Calm Calm 1.0 mph1.6 kmh 30.20 in1022.7 mb 0.25 in6.4 mm 0.00 in0.0 mm 0.25 in6.4 mm
10:24 PM 57.7°F14.3°C 56.5°F13.6°C 96% Calm Calm 1.0 mph1.6 kmh 30.19 in1022.4 mb 0.23 in5.8 mm 0.00 in0.0 mm 0.25 in6.4 mm
10:29 PM 57.6°F14.2°C 56.4°F13.6°C 96% Calm Calm 1.0 mph1.6 kmh 30.19 in1022.4 mb 0.21 in5.3 mm 0.00 in0.0 mm 0.25 in6.4 mm
10:34 PM 57.4°F14.1°C 56.2°F13.4°C 96% Calm Calm -- 30.18 in1022.0 mb 0.20 in5.1 mm 0.00 in0.0 mm 0.26 in6.6 mm
10:39 PM 57.3°F14.1°C 56.1°F13.4°C 96% Calm Calm -- 30.18 in1022.0 mb 0.18 in4.6 mm 0.00 in0.0 mm 0.26 in6.6 mm
10:44 PM 57.3°F14.1°C 56.1°F13.4°C 96% Calm Calm -- 30.18 in1022.0 mb 0.15 in3.8 mm 0.00 in0.0 mm 0.26 in6.6 mm
10:49 PM 57.4°F14.1°C 56.5°F13.6°C 97% Calm Calm -- 30.18 in1022.0 mb 0.13 in3.3 mm 0.00 in0.0 mm 0.26 in6.6 mm
10:54 PM 57.6°F14.2°C 56.7°F13.7°C 97% Calm Calm -- 30.18 in1022.0 mb 0.12 in3.0 mm 0.00 in0.0 mm 0.26 in6.6 mm
10:59 PM 57.7°F14.3°C 56.8°F13.8°C 97% 1.3 mph WNW2.1 kmh WNW 2.0 mph3.2 kmh 30.19 in1022.4 mb 0.09 in2.3 mm 0.00 in0.0 mm 0.26 in6.6 mm
11:04 PM 57.6°F14.2°C 56.7°F13.7°C 97% 1.1 mph N1.8 kmh N 2.0 mph3.2 kmh 30.18 in1022.0 mb 0.09 in2.3 mm 0.00 in0.0 mm 0.27 in6.9 mm
11:09 PM 57.1°F13.9°C 55.9°F13.3°C 96% Calm Calm 2.0 mph3.2 kmh 30.19 in1022.4 mb 0.06 in1.5 mm 0.00 in0.0 mm 0.27 in6.9 mm
11:14 PM 56.3°F13.5°C 54.8°F12.7°C 95% Calm Calm 2.0 mph3.2 kmh 30.19 in1022.4 mb 0.02 in0.5 mm 0.00 in0.0 mm 0.27 in6.9 mm
11:19 PM 55.4°F13.0°C 54.0°F12.2°C 95% 1.0 mph NW1.6 kmh NW 2.0 mph3.2 kmh 30.19 in1022.4 mb 0.02 in0.5 mm 0.00 in0.0 mm 0.27 in6.9 mm
11:24 PM 54.9°F12.7°C 53.2°F11.8°C 94% Calm Calm 2.0 mph3.2 kmh 30.19 in1022.4 mb 0.03 in0.8 mm 0.12 in3.0 mm 0.28 in7.1 mm
11:29 PM 54.6°F12.6°C 52.9°F11.6°C 94% Calm Calm 2.0 mph3.2 kmh 30.19 in1022.4 mb 0.03 in0.8 mm 0.00 in0.0 mm 0.28 in7.1 mm
11:34 PM 54.4°F12.4°C 53.0°F11.7°C 95% 1.4 mph NW2.3 kmh NW 3.0 mph4.8 kmh 30.20 in1022.7 mb 0.03 in0.8 mm 0.00 in0.0 mm 0.29 in7.4 mm
11:39 PM 54.3°F12.4°C 52.9°F11.6°C 95% Calm Calm 3.0 mph4.8 kmh 30.19 in1022.4 mb 0.04 in1.0 mm 0.12 in3.0 mm 0.30 in7.6 mm
11:44 PM 54.2°F12.3°C 52.8°F11.6°C 95% 1.0 mph NW1.6 kmh NW 3.0 mph4.8 kmh 30.19 in1022.4 mb 0.04 in1.0 mm 0.00 in0.0 mm 0.30 in7.6 mm
11:49 PM 53.9°F12.2°C 52.5°F11.4°C 95% 1.7 mph NW2.7 kmh NW 4.0 mph6.4 kmh 30.20 in1022.7 mb 0.04 in1.0 mm 0.00 in0.0 mm 0.30 in7.6 mm
11:54 PM 53.8°F12.1°C 52.7°F11.5°C 96% 1.1 mph NW1.8 kmh NW 5.0 mph8.0 kmh 30.20 in1022.7 mb 0.04 in1.0 mm 0.00 in0.0 mm 0.30 in7.6 mm
11:59 PM 53.7°F12.1°C 52.6°F11.4°C 96% 2.5 mph NNW4.0 kmh NNW 6.0 mph9.7 kmh 30.20 in1022.7 mb 0.04 in1.0 mm 0.00 in0.0 mm 0.30 in7.6 mm